Time;durP1;ratioP1;P1;durP2;ratioP2;P2;SDS_P1;SDS_P2;PMS_P1;PMS_P2;Temp;Humidity;BMP_temperature;BMP_pressure;BME280_temperature;BME280_humidity;BME280_pressure;Samples;Min_cycle;Max_cycle;Signal;HPM_P1;HPM_P2
2022/01/31 00:00:02;;;;;;;18.27;2.92;;;;;;;;;;5015087;28;20533;-77
2022/01/31 00:02:29;;;;;;;15.50;3.50;;;;;;;;;;5014920;28;20022;-75
2022/01/31 00:04:55;;;;;;;15.55;4.55;;;;;;;;;;5016134;28;20029;-75
2022/01/31 00:07:22;;;;;;;13.90;2.20;;;;;;;;;;5014767;28;20034;-76
2022/01/31 00:09:48;;;;;;;15.38;2.63;;;;;;;;;;5016044;28;20026;-81
2022/01/31 00:12:18;;;;;;;15.20;2.38;;;;;;;;;;5014726;28;20437;-78
2022/01/31 00:14:48;;;;;;;11.50;1.88;;;;;;;;;;5014811;28;20083;-79
2022/01/31 00:17:15;;;;;;;20.48;1.75;;;;;;;;;;5014623;28;20037;-76
2022/01/31 00:19:42;;;;;;;15.82;2.22;;;;;;;;;;5015815;28;20026;-76
2022/01/31 00:22:10;;;;;;;16.95;3.10;;;;;;;;;;5015774;28;20083;-78
2022/01/31 00:24:36;;;;;;;15.13;2.10;;;;;;;;;;5015720;28;20123;-79
2022/01/31 00:27:03;;;;;;;16.83;2.28;;;;;;;;;;5014433;28;20037;-80
2022/01/31 00:29:29;;;;;;;14.85;2.63;;;;;;;;;;5014402;28;20053;-76
2022/01/31 00:31:56;;;;;;;15.45;2.97;;;;;;;;;;5014317;28;20037;-76
2022/01/31 00:34:25;;;;;;;13.48;2.40;;;;;;;;;;5014406;28;20022;-76
2022/01/31 00:36:52;;;;;;;11.10;2.00;;;;;;;;;;5015487;28;20057;-76
2022/01/31 00:39:18;;;;;;;8.93;1.55;;;;;;;;;;5015491;28;20026;-77
2022/01/31 00:41:45;;;;;;;15.85;2.42;;;;;;;;;;5014300;28;20439;-76
2022/01/31 00:44:21;;;;;;;11.80;2.45;;;;;;;;;;5014088;28;20120;-76
2022/01/31 00:46:53;;;;;;;13.52;2.15;;;;;;;;;;5015785;28;20044;-76
2022/01/31 00:51:58;;;;;;;15.43;2.30;;;;;;;;;;5015301;28;20113;-76
2022/01/31 00:54:24;;;;;;;12.02;2.58;;;;;;;;;;5014849;28;20069;-76
2022/01/31 00:56:51;;;;;;;15.82;2.67;;;;;;;;;;5015107;28;20026;-76
2022/01/31 00:59:18;;;;;;;12.98;2.22;;;;;;;;;;5015614;28;20057;-76
2022/01/31 01:01:45;;;;;;;12.05;1.90;;;;;;;;;;5013786;28;20040;-78
2022/01/31 01:04:11;;;;;;;9.55;2.17;;;;;;;;;;5013801;28;20022;-76
2022/01/31 01:06:38;;;;;;;12.07;1.50;;;;;;;;;;5013621;28;20042;-75
2022/01/31 01:09:05;;;;;;;15.95;2.03;;;;;;;;;;5014967;28;20132;-79
2022/01/31 01:11:31;;;;;;;13.32;1.92;;;;;;;;;;5015351;28;20387;-76
2022/01/31 01:13:57;;;;;;;11.43;2.30;;;;;;;;;;5013575;28;20475;-77
2022/01/31 01:16:23;;;;;;;10.77;1.75;;;;;;;;;;5013534;28;20096;-79
2022/01/31 01:18:50;;;;;;;19.48;2.38;;;;;;;;;;5014771;28;20034;-76
2022/01/31 01:21:16;;;;;;;14.75;2.00;;;;;;;;;;5014657;28;20025;-75
2022/01/31 01:23:42;;;;;;;13.63;2.47;;;;;;;;;;5013421;28;20092;-77
2022/01/31 01:26:08;;;;;;;14.48;2.17;;;;;;;;;;5013250;28;20121;-76
2022/01/31 01:28:34;;;;;;;12.88;1.70;;;;;;;;;;5013370;28;20053;-78
2022/01/31 01:31:01;;;;;;;10.73;1.90;;;;;;;;;;5014502;28;20049;-78
2022/01/31 01:33:28;;;;;;;13.30;2.42;;;;;;;;;;5013247;28;20053;-77
2022/01/31 01:35:55;;;;;;;13.13;2.28;;;;;;;;;;5013199;28;20109;-78
2022/01/31 01:38:28;;;;;;;11.77;1.92;;;;;;;;;;5014449;28;20026;-79
2022/01/31 01:40:56;;;;;;;14.43;1.63;;;;;;;;;;5013410;28;20447;-76
2022/01/31 01:43:22;;;;;;;7.53;2.20;;;;;;;;;;5013090;28;20280;-76
2022/01/31 01:45:51;;;;;;;16.27;2.67;;;;;;;;;;5012970;28;20069;-76
2022/01/31 01:48:17;;;;;;;8.57;1.75;;;;;;;;;;5014231;28;20036;-76
2022/01/31 01:50:44;;;;;;;14.02;1.90;;;;;;;;;;5014223;28;20034;-76
2022/01/31 01:53:12;;;;;;;17.27;1.95;;;;;;;;;;5012861;28;20034;-76
2022/01/31 01:55:38;;;;;;;16.13;1.58;;;;;;;;;;5012803;28;20175;-76
2022/01/31 01:58:06;;;;;;;12.25;2.50;;;;;;;;;;5012846;28;20488;-79
2022/01/31 02:03:32;;;;;;;13.65;2.65;;;;;;;;;;4997117;28;20117;-75
2022/01/31 02:05:58;;;;;;;12.80;2.35;;;;;;;;;;5012668;28;20030;-76
2022/01/31 02:08:26;;;;;;;11.32;1.60;;;;;;;;;;5012671;28;20390;-75
2022/01/31 02:10:52;;;;;;;9.80;1.92;;;;;;;;;;5012655;28;20032;-78
2022/01/31 02:13:19;;;;;;;17.33;2.75;;;;;;;;;;5013924;28;20057;-77
2022/01/31 02:15:47;;;;;;;15.90;2.30;;;;;;;;;;5012654;28;20113;-77
2022/01/31 02:18:15;;;;;;;12.85;1.45;;;;;;;;;;5013365;28;20025;-76
2022/01/31 02:20:42;;;;;;;15.20;2.42;;;;;;;;;;5013775;28;20025;-76
2022/01/31 02:23:10;;;;;;;14.32;1.77;;;;;;;;;;5013810;28;20076;-77
2022/01/31 02:25:55;;;;;;;15.27;2.30;;;;;;;;;;5012865;28;20060;-76
2022/01/31 02:28:23;;;;;;;11.43;1.80;;;;;;;;;;5012717;28;20038;-77
2022/01/31 02:30:49;;;;;;;14.43;2.33;;;;;;;;;;5012463;28;20032;-76
2022/01/31 02:33:16;;;;;;;10.23;2.15;;;;;;;;;;5014223;28;20481;-77
2022/01/31 02:35:42;;;;;;;8.23;1.77;;;;;;;;;;5012315;28;20113;-77
2022/01/31 02:38:09;;;;;;;13.55;2.40;;;;;;;;;;5013661;28;20382;-76
2022/01/31 02:40:35;;;;;;;16.05;2.40;;;;;;;;;;5013581;28;20102;-77
2022/01/31 02:43:01;;;;;;;14.23;2.20;;;;;;;;;;5013542;28;20368;-76
2022/01/31 02:45:28;;;;;;;13.63;1.88;;;;;;;;;;5012370;28;20059;-77
2022/01/31 02:47:57;;;;;;;13.88;2.17;;;;;;;;;;5012232;28;20490;-76
2022/01/31 02:50:24;;;;;;;9.20;1.70;;;;;;;;;;5012247;28;20561;-77
2022/01/31 02:52:59;;;;;;;11.63;2.38;;;;;;;;;;5013554;28;20057;-77
2022/01/31 02:55:26;;;;;;;13.90;2.17;;;;;;;;;;5013431;28;20173;-77
2022/01/31 02:57:52;;;;;;;18.25;2.08;;;;;;;;;;5013427;28;20033;-76
2022/01/31 03:00:19;;;;;;;18.33;2.08;;;;;;;;;;5013448;28;20100;-77
2022/01/31 03:02:45;;;;;;;10.15;2.25;;;;;;;;;;5013987;28;20030;-78
2022/01/31 03:05:11;;;;;;;13.93;2.70;;;;;;;;;;5012069;28;20475;-76
2022/01/31 03:07:38;;;;;;;13.07;2.03;;;;;;;;;;5011949;28;20561;-76
2022/01/31 03:10:04;;;;;;;14.40;2.28;;;;;;;;;;5012091;28;20022;-76
2022/01/31 03:12:30;;;;;;;13.68;2.00;;;;;;;;;;5016048;28;20033;-77
2022/01/31 03:14:57;;;;;;;8.60;2.00;;;;;;;;;;5015873;28;20030;-77
2022/01/31 03:17:23;;;;;;;13.85;2.28;;;;;;;;;;5017661;28;20037;-76
2022/01/31 03:19:53;;;;;;;10.75;2.00;;;;;;;;;;5015766;28;20026;-75
2022/01/31 03:22:21;;;;;;;11.15;1.63;;;;;;;;;;5017275;28;20136;-77
2022/01/31 03:24:48;;;;;;;17.80;2.03;;;;;;;;;;5016887;28;20033;-76
2022/01/31 03:27:15;;;;;;;14.43;2.55;;;;;;;;;;5016409;28;20038;-76
2022/01/31 03:29:42;;;;;;;20.52;3.42;;;;;;;;;;5015528;28;20060;-76
2022/01/31 03:32:08;;;;;;;10.70;1.95;;;;;;;;;;5016737;28;20088;-77
2022/01/31 03:34:34;;;;;;;14.60;2.28;;;;;;;;;;5017244;28;20065;-76
2022/01/31 03:37:01;;;;;;;14.02;2.35;;;;;;;;;;5017234;28;20049;-78
2022/01/31 03:39:27;;;;;;;11.65;2.10;;;;;;;;;;5015372;28;20029;-79
2022/01/31 03:41:53;;;;;;;14.57;2.75;;;;;;;;;;5017059;28;20033;-79
2022/01/31 03:44:19;;;;;;;15.00;2.22;;;;;;;;;;5017107;28;20430;-76
2022/01/31 03:46:46;;;;;;;14.40;2.17;;;;;;;;;;5016917;28;20544;-75
2022/01/31 03:49:12;;;;;;;13.05;2.05;;;;;;;;;;5016408;28;20022;-77
2022/01/31 03:51:38;;;;;;;9.20;1.83;;;;;;;;;;5016481;28;20050;-78
2022/01/31 03:54:04;;;;;;;8.43;1.70;;;;;;;;;;5014733;28;20434;-76
2022/01/31 03:56:31;;;;;;;10.98;1.98;;;;;;;;;;5016861;28;20026;-76
2022/01/31 03:58:57;;;;;;;14.32;2.20;;;;;;;;;;5016286;28;20033;-77
2022/01/31 04:01:24;;;;;;;11.18;2.05;;;;;;;;;;5014885;28;20486;-76
2022/01/31 04:03:50;;;;;;;16.77;2.35;;;;;;;;;;5016155;28;20099;-76
2022/01/31 04:06:16;;;;;;;15.27;2.47;;;;;;;;;;5016551;28;20030;-76
2022/01/31 04:08:43;;;;;;;16.08;2.33;;;;;;;;;;5016105;28;20026;-76
2022/01/31 04:11:10;;;;;;;12.00;2.30;;;;;;;;;;5014772;28;20026;-77
2022/01/31 04:13:37;;;;;;;9.50;1.98;;;;;;;;;;5014668;28;20036;-76
2022/01/31 04:16:03;;;;;;;15.15;2.63;;;;;;;;;;5015469;28;20116;-78
2022/01/31 04:18:29;;;;;;;12.43;1.98;;;;;;;;;;5014625;28;20118;-78
2022/01/31 04:20:56;;;;;;;16.20;2.20;;;;;;;;;;5014659;28;20033;-76
2022/01/31 04:23:25;;;;;;;12.10;2.10;;;;;;;;;;5015501;28;20034;-77
2022/01/31 04:25:55;;;;;;;10.40;2.05;;;;;;;;;;5014480;28;20025;-78
2022/01/31 04:28:33;;;;;;;12.55;2.58;;;;;;;;;;5014467;28;20040;-76
2022/01/31 04:33:26;;;;;;;15.63;2.40;;;;;;;;;;5016449;28;20030;-79
2022/01/31 04:35:53;;;;;;;13.70;2.63;;;;;;;;;;5014388;28;20053;-76
2022/01/31 04:38:19;;;;;;;17.48;2.60;;;;;;;;;;5016067;28;20026;-76
2022/01/31 04:40:46;;;;;;;17.52;3.25;;;;;;;;;;5014206;28;20398;-76
2022/01/31 04:43:12;;;;;;;12.40;2.33;;;;;;;;;;5015995;28;20038;-76
2022/01/31 04:45:46;;;;;;;17.52;2.00;;;;;;;;;;5015918;28;20602;-77
2022/01/31 04:48:13;;;;;;;12.25;2.08;;;;;;;;;;5014073;28;20633;-76
2022/01/31 04:50:39;;;;;;;11.68;1.73;;;;;;;;;;5014042;28;20037;-77
2022/01/31 04:53:05;;;;;;;13.13;2.13;;;;;;;;;;5015152;28;20123;-76
2022/01/31 04:55:32;;;;;;;7.90;1.60;;;;;;;;;;5015058;28;20446;-76
2022/01/31 04:57:58;;;;;;;18.95;2.78;;;;;;;;;;5015191;28;20157;-76
2022/01/31 05:00:25;;;;;;;16.63;2.53;;;;;;;;;;5015534;28;20030;-75
2022/01/31 05:02:51;;;;;;;10.68;2.10;;;;;;;;;;5013729;28;20482;-79
2022/01/31 05:05:17;;;;;;;10.02;2.05;;;;;;;;;;5013697;28;20057;-78
2022/01/31 05:07:44;;;;;;;20.83;2.65;;;;;;;;;;5013674;28;20114;-76
2022/01/31 05:10:10;;;;;;;19.00;2.00;;;;;;;;;;5014957;28;20034;-76
2022/01/31 05:12:37;;;;;;;11.38;2.50;;;;;;;;;;5014849;28;20025;-76
2022/01/31 05:15:04;;;;;;;19.42;2.08;;;;;;;;;;5015373;28;20030;-76
2022/01/31 05:17:30;;;;;;;11.50;1.52;;;;;;;;;;5015302;28;20104;-76
2022/01/31 05:19:57;;;;;;;5.57;1.88;;;;;;;;;;5015362;28;20029;-76
2022/01/31 05:22:23;;;;;;;9.13;1.52;;;;;;;;;;5013411;28;20061;-76
2022/01/31 05:24:49;;;;;;;11.80;1.58;;;;;;;;;;5013385;28;20033;-76
2022/01/31 05:27:16;;;;;;;8.10;1.73;;;;;;;;;;5013348;28;20129;-76
2022/01/31 05:29:42;;;;;;;10.05;2.10;;;;;;;;;;5013323;28;20126;-76
2022/01/31 05:32:09;;;;;;;12.18;2.13;;;;;;;;;;5013285;28;20057;-76
2022/01/31 05:34:35;;;;;;;15.02;2.58;;;;;;;;;;5014307;28;20037;-76
2022/01/31 05:37:01;;;;;;;15.55;2.30;;;;;;;;;;5013189;28;20026;-75
2022/01/31 05:39:28;;;;;;;12.10;1.88;;;;;;;;;;5015063;28;20030;-77
2022/01/31 05:41:55;;;;;;;10.43;1.70;;;;;;;;;;5013185;28;20048;-76
2022/01/31 05:44:22;;;;;;;13.30;1.98;;;;;;;;;;5014915;28;20462;-76
2022/01/31 05:46:49;;;;;;;9.93;2.00;;;;;;;;;;5013035;28;20033;-76
2022/01/31 05:49:15;;;;;;;7.15;1.80;;;;;;;;;;5014269;28;20038;-76
2022/01/31 05:52:02;;;;;;;9.88;1.52;;;;;;;;;;5014778;28;20033;-76
2022/01/31 05:54:29;;;;;;;8.90;1.67;;;;;;;;;;5012781;28;20085;-76
2022/01/31 05:56:59;;;;;;;13.95;2.42;;;;;;;;;;5014692;28;20406;-76
2022/01/31 05:59:25;;;;;;;9.10;1.40;;;;;;;;;;5012840;28;20030;-76
2022/01/31 06:01:52;;;;;;;12.55;2.08;;;;;;;;;;5014049;28;20018;-76
2022/01/31 06:04:18;;;;;;;10.52;1.50;;;;;;;;;;5012731;28;20033;-76
2022/01/31 06:06:45;;;;;;;10.57;1.58;;;;;;;;;;5014437;28;20030;-76
2022/01/31 06:09:12;;;;;;;11.30;1.85;;;;;;;;;;5013948;28;20080;-76
2022/01/31 06:11:38;;;;;;;17.23;1.95;;;;;;;;;;5012647;28;20025;-76
2022/01/31 06:14:08;;;;;;;8.63;1.70;;;;;;;;;;5014543;28;20375;-76
2022/01/31 06:16:34;;;;;;;15.70;2.55;;;;;;;;;;5013104;28;20025;-74
2022/01/31 06:19:01;;;;;;;11.43;2.10;;;;;;;;;;5017435;28;20140;-76
2022/01/31 06:21:27;;;;;;;10.95;1.80;;;;;;;;;;4993209;28;20092;-75
2022/01/31 06:23:53;;;;;;;8.80;1.98;;;;;;;;;;5002845;28;20119;-73
2022/01/31 06:26:21;;;;;;;11.57;2.25;;;;;;;;;;5012665;28;20119;-74
2022/01/31 06:28:50;;;;;;;12.77;2.05;;;;;;;;;;5013698;28;20034;-75
2022/01/31 06:31:16;;;;;;;10.38;1.88;;;;;;;;;;5013687;28;20030;-73
2022/01/31 06:33:43;;;;;;;6.22;1.45;;;;;;;;;;5013587;28;20120;-73
2022/01/31 06:36:09;;;;;;;16.15;1.95;;;;;;;;;;5012624;28;20033;-74
2022/01/31 06:38:38;;;;;;;9.60;3.15;;;;;;;;;;5013668;28;20033;-73
2022/01/31 06:41:04;;;;;;;13.85;1.80;;;;;;;;;;5013373;28;20427;-75
2022/01/31 06:43:30;;;;;;;7.72;2.13;;;;;;;;;;5012270;28;20070;-74
2022/01/31 06:45:57;;;;;;;9.30;2.40;;;;;;;;;;5014139;28;20566;-74
2022/01/31 06:48:23;;;;;;;14.93;3.40;;;;;;;;;;5017693;28;20033;-74
2022/01/31 06:50:49;;;;;;;14.10;2.47;;;;;;;;;;5017586;28;20025;-74
2022/01/31 06:53:17;;;;;;;13.82;3.35;;;;;;;;;;5016032;28;20699;-74
2022/01/31 06:55:43;;;;;;;14.23;2.55;;;;;;;;;;5015930;28;20050;-74
2022/01/31 06:58:09;;;;;;;14.65;2.88;;;;;;;;;;5016057;28;20116;-75
2022/01/31 07:00:36;;;;;;;15.27;4.78;;;;;;;;;;5017304;28;20097;-74
2022/01/31 07:03:05;;;;;;;18.40;3.88;;;;;;;;;;5015947;28;20057;-75
2022/01/31 07:05:31;;;;;;;11.57;3.40;;;;;;;;;;5016594;28;20033;-74
2022/01/31 07:07:57;;;;;;;12.00;3.30;;;;;;;;;;5015780;28;20127;-74
2022/01/31 07:10:23;;;;;;;16.13;4.78;;;;;;;;;;5017043;28;20029;-75
2022/01/31 07:12:53;;;;;;;84.25;23.75;;;;;;;;;;5015644;28;20026;-77
2022/01/31 07:15:19;;;;;;;19.23;5.55;;;;;;;;;;5015783;28;20092;-75
2022/01/31 07:17:46;;;;;;;10.48;3.20;;;;;;;;;;5015795;28;20018;-75
2022/01/31 07:20:22;;;;;;;9.65;2.03;;;;;;;;;;5015755;28;20032;-74
2022/01/31 07:22:57;;;;;;;13.60;3.30;;;;;;;;;;5015947;28;20080;-76
2022/01/31 07:25:34;;;;;;;8.18;1.80;;;;;;;;;;5015578;28;20032;-75
2022/01/31 07:28:11;;;;;;;9.13;2.20;;;;;;;;;;5015444;28;20044;-75
2022/01/31 07:30:39;;;;;;;11.48;2.28;;;;;;;;;;5016845;28;20088;-76
2022/01/31 07:33:06;;;;;;;11.52;1.90;;;;;;;;;;5015295;28;20030;-74
2022/01/31 07:35:32;;;;;;;13.07;2.08;;;;;;;;;;5015350;28;20434;-76
2022/01/31 07:37:58;;;;;;;14.48;2.42;;;;;;;;;;5015294;28;20056;-75
2022/01/31 07:40:25;;;;;;;12.45;2.38;;;;;;;;;;5015242;28;20084;-76
2022/01/31 07:42:51;;;;;;;13.43;2.20;;;;;;;;;;5016471;28;20491;-76
2022/01/31 07:45:17;;;;;;;8.95;2.17;;;;;;;;;;5015068;28;20475;-77
2022/01/31 07:47:43;;;;;;;14.52;2.35;;;;;;;;;;5015019;28;20449;-76
2022/01/31 07:50:11;;;;;;;14.77;2.22;;;;;;;;;;5014998;28;20025;-75
2022/01/31 07:52:37;;;;;;;12.77;2.17;;;;;;;;;;5016240;28;20025;-76
2022/01/31 07:55:04;;;;;;;13.38;2.15;;;;;;;;;;5014510;28;20045;-76
2022/01/31 07:57:30;;;;;;;17.67;2.63;;;;;;;;;;5014117;28;20091;-75
2022/01/31 07:59:56;;;;;;;12.82;2.45;;;;;;;;;;5014902;28;20026;-75
2022/01/31 08:02:22;;;;;;;11.82;2.60;;;;;;;;;;5014804;28;20033;-75
2022/01/31 08:04:48;;;;;;;13.07;2.22;;;;;;;;;;5014849;28;20076;-74
2022/01/31 08:07:16;;;;;;;10.98;2.15;;;;;;;;;;5014510;28;20041;-74
2022/01/31 08:09:42;;;;;;;12.50;2.28;;;;;;;;;;5014721;28;20033;-74
2022/01/31 08:12:09;;;;;;;12.63;1.80;;;;;;;;;;5015894;28;20380;-74
2022/01/31 08:14:36;;;;;;;11.25;1.65;;;;;;;;;;5014716;28;20026;-75
2022/01/31 08:17:02;;;;;;;12.32;1.65;;;;;;;;;;5014563;28;20030;-74
2022/01/31 08:19:29;;;;;;;9.25;1.70;;;;;;;;;;5015848;28;20105;-75
2022/01/31 08:21:55;;;;;;;10.70;1.75;;;;;;;;;;5015776;28;20022;-75
2022/01/31 08:24:21;;;;;;;11.77;1.60;;;;;;;;;;5015743;28;20046;-74
2022/01/31 08:26:48;;;;;;;8.55;1.90;;;;;;;;;;5015615;28;20046;-75
2022/01/31 08:29:21;;;;;;;10.30;1.98;;;;;;;;;;5015510;28;20105;-76
2022/01/31 08:31:48;;;;;;;15.60;3.43;;;;;;;;;;5014358;28;20546;-74
2022/01/31 08:36:42;;;;;;;11.65;1.98;;;;;;;;;;5015445;28;20068;-77
2022/01/31 08:39:13;;;;;;;8.20;1.60;;;;;;;;;;5014025;28;20053;-76
2022/01/31 08:41:44;;;;;;;13.43;1.95;;;;;;;;;;5013830;28;20018;-74
2022/01/31 08:44:14;;;;;;;15.02;3.42;;;;;;;;;;5015277;28;20088;-75
2022/01/31 08:46:41;;;;;;;10.15;2.15;;;;;;;;;;5015185;28;20438;-75
2022/01/31 08:49:08;;;;;;;10.25;2.72;;;;;;;;;;5013849;28;20037;-75
2022/01/31 08:51:34;;;;;;;19.38;2.72;;;;;;;;;;5014064;28;20438;-75
2022/01/31 08:54:00;;;;;;;16.17;2.90;;;;;;;;;;5013707;28;20092;-76
2022/01/31 08:56:27;;;;;;;12.82;2.45;;;;;;;;;;5013874;28;20022;-75
2022/01/31 08:58:55;;;;;;;17.15;3.20;;;;;;;;;;5013741;28;20030;-76
2022/01/31 09:01:23;;;;;;;11.18;2.38;;;;;;;;;;5014926;28;20028;-75
2022/01/31 09:06:23;;;;;;;20.55;2.78;;;;;;;;;;5015082;28;20031;-76
2022/01/31 09:08:49;;;;;;;12.70;2.58;;;;;;;;;;5012520;28;20041;-75
2022/01/31 09:11:16;;;;;;;9.65;2.40;;;;;;;;;;5013748;28;20091;-74
2022/01/31 09:13:42;;;;;;;6.78;1.95;;;;;;;;;;5013465;28;20026;-74
2022/01/31 09:16:08;;;;;;;10.52;2.20;;;;;;;;;;5014884;28;20033;-74
2022/01/31 09:18:35;;;;;;;12.40;2.08;;;;;;;;;;5013418;28;20026;-76
2022/01/31 09:21:03;;;;;;;10.15;1.30;;;;;;;;;;5014630;28;20022;-76
2022/01/31 09:23:29;;;;;;;10.20;1.50;;;;;;;;;;5014532;28;20038;-76
2022/01/31 09:25:56;;;;;;;9.50;1.85;;;;;;;;;;5013220;28;20181;-75
2022/01/31 09:28:22;;;;;;;9.90;1.83;;;;;;;;;;5013142;28;20037;-75
2022/01/31 09:30:49;;;;;;;9.90;1.88;;;;;;;;;;5014455;28;20014;-74
2022/01/31 09:33:16;;;;;;;11.82;2.22;;;;;;;;;;5014398;28;20025;-80
2022/01/31 09:35:42;;;;;;;10.85;1.60;;;;;;;;;;5013124;28;20054;-76
2022/01/31 09:38:11;;;;;;;11.13;1.70;;;;;;;;;;5014363;28;20029;-75
2022/01/31 09:40:37;;;;;;;8.73;1.75;;;;;;;;;;5013072;28;20056;-75
2022/01/31 09:46:02;;;;;;;8.95;1.52;;;;;;;;;;5014736;28;20037;-75
2022/01/31 09:48:32;;;;;;;8.07;1.25;;;;;;;;;;5013610;28;20038;-75
2022/01/31 09:50:59;;;;;;;11.38;1.70;;;;;;;;;;5012989;28;20033;-75
2022/01/31 09:53:26;;;;;;;6.15;1.30;;;;;;;;;;5014140;28;20022;-75
2022/01/31 09:55:53;;;;;;;9.75;1.63;;;;;;;;;;5012517;28;20057;-74
2022/01/31 09:58:19;;;;;;;8.13;1.77;;;;;;;;;;5012554;28;20025;-75
2022/01/31 10:00:45;;;;;;;9.55;2.00;;;;;;;;;;5012415;28;20100;-75
2022/01/31 10:03:12;;;;;;;8.48;1.90;;;;;;;;;;5012550;28;20100;-75
2022/01/31 10:05:40;;;;;;;5.88;1.75;;;;;;;;;;5012725;28;20030;-75
2022/01/31 10:08:13;;;;;;;12.50;1.90;;;;;;;;;;5013825;28;20477;-78
2022/01/31 10:10:41;;;;;;;7.32;1.40;;;;;;;;;;5012614;28;20029;-76
2022/01/31 10:16:27;;;;;;;10.65;1.98;;;;;;;;;;5013991;28;20378;-75
2022/01/31 10:19:01;;;;;;;9.40;1.30;;;;;;;;;;5013566;28;20036;-76
2022/01/31 10:21:27;;;;;;;8.80;1.40;;;;;;;;;;5011988;28;20486;-76
2022/01/31 10:23:53;;;;;;;8.85;1.48;;;;;;;;;;5012302;28;20040;-76
2022/01/31 10:26:33;;;;;;;6.82;1.05;;;;;;;;;;5012089;28;20049;-75
2022/01/31 10:29:09;;;;;;;8.15;1.45;;;;;;;;;;5013239;28;20036;-75
2022/01/31 10:31:35;;;;;;;10.43;1.48;;;;;;;;;;5012346;28;20052;-75
2022/01/31 10:34:18;;;;;;;9.55;2.00;;;;;;;;;;5012249;28;20026;-75
2022/01/31 10:36:44;;;;;;;9.23;1.83;;;;;;;;;;5012469;28;20033;-76
2022/01/31 10:43:12;;;;;;;7.03;1.58;;;;;;;;;;5012136;28;20026;-76
2022/01/31 10:53:07;;;;;;;9.98;1.60;;;;;;;;;;5013523;28;20513;-75
2022/01/31 10:55:33;;;;;;;4.22;1.25;;;;;;;;;;5011658;28;20138;-75
2022/01/31 10:58:04;;;;;;;8.95;1.38;;;;;;;;;;5011970;28;20124;-75
2022/01/31 11:00:38;;;;;;;7.88;2.15;;;;;;;;;;5011931;28;20109;-75
2022/01/31 11:03:22;;;;;;;8.80;1.70;;;;;;;;;;5011903;28;20102;-75
2022/01/31 11:05:52;;;;;;;11.75;1.50;;;;;;;;;;5012026;28;20471;-75
2022/01/31 11:08:18;;;;;;;7.25;1.70;;;;;;;;;;5013097;28;20065;-75
2022/01/31 11:10:44;;;;;;;11.00;2.08;;;;;;;;;;5013310;28;20022;-76
2022/01/31 11:13:10;;;;;;;8.18;1.70;;;;;;;;;;5011672;28;20033;-75
2022/01/31 11:15:40;;;;;;;6.32;1.60;;;;;;;;;;5011908;28;20076;-74
2022/01/31 11:18:06;;;;;;;9.88;1.70;;;;;;;;;;5013192;28;20033;-74
2022/01/31 11:20:33;;;;;;;5.63;1.80;;;;;;;;;;5013305;28;20510;-75
2022/01/31 11:23:01;;;;;;;8.77;1.63;;;;;;;;;;5011649;28;20117;-73
2022/01/31 11:25:29;;;;;;;7.75;1.60;;;;;;;;;;5011754;28;20029;-75
2022/01/31 11:27:59;;;;;;;7.80;1.92;;;;;;;;;;5011638;28;20041;-76
2022/01/31 11:30:26;;;;;;;9.32;1.98;;;;;;;;;;5012060;28;20573;-74
2022/01/31 11:32:52;;;;;;;8.77;1.75;;;;;;;;;;5013433;28;20121;-75
2022/01/31 11:35:19;;;;;;;9.20;1.90;;;;;;;;;;5015355;28;20029;-73
2022/01/31 11:37:45;;;;;;;8.57;2.05;;;;;;;;;;5015396;28;20030;-73
2022/01/31 11:40:13;;;;;;;9.73;1.90;;;;;;;;;;5015325;28;20026;-75
2022/01/31 11:42:43;;;;;;;10.25;1.65;;;;;;;;;;5015241;28;20084;-75
2022/01/31 11:45:15;;;;;;;12.45;2.05;;;;;;;;;;5015363;28;20028;-75
2022/01/31 11:47:41;;;;;;;10.20;1.75;;;;;;;;;;5015072;28;20030;-75
2022/01/31 11:50:08;;;;;;;8.30;1.90;;;;;;;;;;5015124;28;20038;-74
2022/01/31 11:52:44;;;;;;;8.77;1.38;;;;;;;;;;5016596;28;20393;-80
2022/01/31 11:55:12;;;;;;;8.25;2.00;;;;;;;;;;5015734;28;20107;-75
2022/01/31 11:57:39;;;;;;;8.45;1.80;;;;;;;;;;5015025;28;20441;-74
2022/01/31 12:00:09;;;;;;;6.57;1.45;;;;;;;;;;5014920;28;20101;-76
2022/01/31 12:02:46;;;;;;;9.40;1.95;;;;;;;;;;5014888;28;20486;-75
2022/01/31 12:05:15;;;;;;;10.63;1.70;;;;;;;;;;5016045;28;20478;-75
2022/01/31 12:07:42;;;;;;;9.07;1.90;;;;;;;;;;5014761;28;20038;-74
2022/01/31 12:10:20;;;;;;;9.60;1.80;;;;;;;;;;5016025;28;20022;-75
2022/01/31 12:15:56;;;;;;;7.65;1.95;;;;;;;;;;4993534;28;20069;-75
2022/01/31 12:24:10;;;;;;;9.43;1.80;;;;;;;;;;5016192;28;20037;-75
2022/01/31 12:26:51;;;;;;;6.25;1.83;;;;;;;;;;5011629;28;20069;-73
2022/01/31 12:29:19;;;;;;;10.77;1.83;;;;;;;;;;5014296;28;20029;-74
2022/01/31 12:31:54;;;;;;;5.93;2.00;;;;;;;;;;5015548;28;20037;-74
2022/01/31 12:34:21;;;;;;;12.65;2.17;;;;;;;;;;5015179;28;20490;-74
2022/01/31 12:36:57;;;;;;;16.92;2.15;;;;;;;;;;5017222;28;20022;-74
2022/01/31 12:39:38;;;;;;;14.45;2.67;;;;;;;;;;5015618;28;20033;-76
2022/01/31 12:42:32;;;;;;;9.35;2.20;;;;;;;;;;5015337;28;20030;-74
2022/01/31 12:44:58;;;;;;;11.30;2.65;;;;;;;;;;5013893;28;20022;-74
2022/01/31 12:47:24;;;;;;;13.95;3.13;;;;;;;;;;5014128;28;20125;-76
2022/01/31 12:50:09;;;;;;;9.75;2.20;;;;;;;;;;5013885;28;20022;-76
2022/01/31 12:52:36;;;;;;;7.97;2.60;;;;;;;;;;5015169;28;20029;-74
2022/01/31 12:55:11;;;;;;;11.00;2.65;;;;;;;;;;5013338;28;20050;-74
2022/01/31 12:57:54;;;;;;;9.23;2.45;;;;;;;;;;5013892;28;20037;-74
2022/01/31 13:00:38;;;;;;;8.47;2.57;;;;;;;;;;5015011;28;20022;-76
2022/01/31 13:03:04;;;;;;;;;;;;;;;;;;5015669;28;20022;-75
2022/01/31 13:05:31;;;;;;;12.30;2.70;;;;;;;;;;5013695;28;20059;-74
2022/01/31 13:07:57;;;;;;;11.98;2.88;;;;;;;;;;5013527;28;20509;-74
2022/01/31 13:10:23;;;;;;;10.60;2.53;;;;;;;;;;5015302;28;20033;-74
2022/01/31 13:13:04;;;;;;;10.05;2.15;;;;;;;;;;5013738;28;20032;-74
2022/01/31 13:15:30;;;;;;;6.65;2.25;;;;;;;;;;5013508;28;20101;-74
2022/01/31 13:18:07;;;;;;;8.40;2.35;;;;;;;;;;5013561;28;20037;-74
2022/01/31 13:20:37;;;;;;;10.32;2.50;;;;;;;;;;5013489;28;20040;-74
2022/01/31 13:23:05;;;;;;;7.47;1.95;;;;;;;;;;5014188;28;20394;-74
2022/01/31 13:25:31;;;;;;;10.73;2.60;;;;;;;;;;5013370;28;20433;-74
2022/01/31 13:27:58;;;;;;;10.25;2.53;;;;;;;;;;5014403;28;20042;-74
2022/01/31 13:30:25;;;;;;;8.20;2.53;;;;;;;;;;5014464;28;20030;-74
2022/01/31 13:32:52;;;;;;;8.98;2.72;;;;;;;;;;5014595;28;20034;-74
2022/01/31 13:35:29;;;;;;;10.93;2.95;;;;;;;;;;5014587;28;20033;-75
2022/01/31 13:38:00;;;;;;;9.65;2.65;;;;;;;;;;5014562;28;20440;-73
2022/01/31 13:40:33;;;;;;;10.25;2.60;;;;;;;;;;5013104;28;20030;-75
2022/01/31 13:43:01;;;;;;;12.32;2.92;;;;;;;;;;5012652;28;20160;-75
2022/01/31 13:45:39;;;;;;;10.20;3.03;;;;;;;;;;5012589;28;20064;-74
2022/01/31 13:48:33;;;;;;;9.73;2.97;;;;;;;;;;5012529;28;20501;-74
2022/01/31 13:50:57;;;;;;;15.65;3.40;;;;;;;;;;5013684;28;20116;-74
2022/01/31 13:53:23;;;;;;;12.63;3.35;;;;;;;;;;5013225;28;20390;-73
2022/01/31 13:55:53;;;;;;;12.57;3.45;;;;;;;;;;5012009;28;20449;-74
2022/01/31 13:58:24;;;;;;;10.90;3.20;;;;;;;;;;5014466;28;20022;-74
2022/01/31 14:00:50;;;;;;;13.75;2.97;;;;;;;;;;5012788;28;20030;-74
2022/01/31 14:03:18;;;;;;;12.13;3.38;;;;;;;;;;5012696;28;20068;-74
2022/01/31 14:06:01;;;;;;;12.32;3.55;;;;;;;;;;5013695;28;20026;-75
2022/01/31 14:08:27;;;;;;;;;;;;;;;;;;5014186;28;20092;-74
2022/01/31 14:11:04;;;;;;;10.55;3.80;;;;;;;;;;5014222;28;20309;-73
2022/01/31 14:13:30;;;;;;;9.68;3.10;;;;;;;;;;5013943;28;20022;-76
2022/01/31 14:15:57;;;;;;;12.07;3.22;;;;;;;;;;5012470;28;20033;-73
2022/01/31 14:18:23;;;;;;;11.35;3.97;;;;;;;;;;5012346;28;20117;-76
2022/01/31 14:20:54;;;;;;;9.27;3.30;;;;;;;;;;5012528;28;20021;-73
2022/01/31 14:23:20;;;;;;;14.35;3.80;;;;;;;;;;5013591;28;20037;-74
2022/01/31 14:25:47;;;;;;;10.25;3.38;;;;;;;;;;5012212;28;20026;-74
2022/01/31 14:28:14;;;;;;;8.52;3.22;;;;;;;;;;5013556;28;20038;-74
2022/01/31 14:30:48;;;;;;;11.95;4.07;;;;;;;;;;5012233;28;20052;-74
2022/01/31 14:33:14;;;;;;;;;;;;;;;;;;5012729;28;20542;-73
2022/01/31 14:35:40;;;;;;;10.30;4.00;;;;;;;;;;5012199;28;19905;-75
2022/01/31 14:38:23;;;;;;;8.07;3.30;;;;;;;;;;5012500;28;20033;-74
2022/01/31 14:49:04;;;;;;;12.48;4.05;;;;;;;;;;5013423;28;20080;-74
2022/01/31 14:51:31;;;;;;;13.52;4.18;;;;;;;;;;5012071;28;20049;-76
2022/01/31 14:54:01;;;;;;;14.93;4.22;;;;;;;;;;5012871;28;20018;-74
2022/01/31 14:56:29;;;;;;;13.18;4.35;;;;;;;;;;5013918;28;20052;-75
2022/01/31 14:58:57;;;;;;;10.23;3.72;;;;;;;;;;5012052;28;20030;-76
2022/01/31 15:01:23;;;;;;;12.38;4.22;;;;;;;;;;5617249;23;20133;-71
2022/01/31 15:03:50;;;;;;;14.85;4.82;;;;;;;;;;5013283;28;20037;-70
2022/01/31 15:06:17;;;;;;;11.20;4.20;;;;;;;;;;5012509;28;20030;-71
2022/01/31 15:08:43;;;;;;;14.10;4.00;;;;;;;;;;5016013;28;20040;-71
2022/01/31 15:11:09;;;;;;;12.35;4.35;;;;;;;;;;5017255;28;20025;-71
2022/01/31 15:13:39;;;;;;;10.68;4.07;;;;;;;;;;5015958;28;20057;-71
2022/01/31 15:16:07;;;;;;;10.70;4.40;;;;;;;;;;5017182;28;20037;-71
2022/01/31 15:18:37;;;;;;;13.95;4.45;;;;;;;;;;5015822;28;20026;-69
2022/01/31 15:21:05;;;;;;;12.27;4.20;;;;;;;;;;5017601;28;20052;-71
2022/01/31 15:23:39;;;;;;;10.40;4.07;;;;;;;;;;5015726;28;20072;-70
2022/01/31 15:26:06;;;;;;;10.98;4.40;;;;;;;;;;5015744;28;20026;-70